KOEO/OEO METAR and TAF weather

Enter ICAO airport designator
Station Type Date Time Source
KOEO METAR 2024/05/28 22:15 UTC NOAA

KOEO 282215Z AUTO 32007KT 10SM SCT065 18/10 A3013 RMK AO2 T01770098 PWINO


Station Type Date Time Source
KOEO Decoded METAR 2024/05/28 22:15 UTC NOAA

Osceola, L O Simenstad Municipal Airport, WI, United States (KOEO) 45-18-31N 092-41-24W
May 28, 2024 - 06:15 PM EDT / 2024.05.28 2215 UTC
Wind: from the NW (320 degrees) at 8 MPH (7 KT):0
Visibility: 10 mile(s):0
Sky conditions: partly cloudy
Temperature: 63.9 F (17.7 C)
Dew Point: 49.6 F (9.8 C)
Relative Humidity: 59%
Pressure (altimeter): 30.13 in. Hg (1020 hPa)
ob: KOEO 282215Z AUTO 32007KT 10SM SCT065 18/10 A3013 RMK AO2 T01770098 PWINO
cycle: 22

Station Type Date Time Source
KOEO TAF UTC NOAA

Error!

Example: see airport list